RDD weather

Redding Municipal Airport
Redding, California, United States

Public forecast

Using degrees Fahrenheit for public forecast. Weather courtesy of forecast.io.

Current aviation weather report (METAR) for Redding Municipal Airport

Retrieved 2020/02/19 05:53 UTC (50 minutes ago):

KRDD 190553Z 36005KT 10SM CLR 06/M04 A3004 RMK AO2 SLP172 T00611039 10183 20050 53016

Aviation forecast (TAF) for Redding Municipal Airport

Retrieved 2020/02/19 06:22 UTC (21 minutes ago):

TAF KRDD 190520Z 1906/2006 36004KT P6SM SKC FM191800 01009KT P6SM SKC FM192100 VRB04KT P6SM FEW250